Time;durP1;ratioP1;P1;durP2;ratioP2;P2;SDS_P1;SDS_P2;PMS_P1;PMS_P2;Temp;Humidity;BMP_temperature;BMP_pressure;BME280_temperature;BME280_humidity;BME280_pressure;Samples;Min_cycle;Max_cycle;Signal;HPM_P1;HPM_P2
2023/03/25 00:01:58;;;;;;;;;;;;;;;7.54;100.00;95906.53;5036741;28;20013;-64
2023/03/25 00:04:26;;;;;;;;;;;;;;;7.51;100.00;95907.72;5036539;28;19960;-70
2023/03/25 00:06:55;;;;;;;;;;;;;;;7.48;100.00;95913.38;5037171;28;19941;-65
2023/03/25 00:09:21;;;;;;;;;;;;;;;7.45;100.00;95911.19;5036308;28;19944;-65
2023/03/25 00:11:49;;;;;;;;;;;;;;;7.44;100.00;95906.19;5036330;28;20307;-64
2023/03/25 00:14:16;;;;;;;;;;;;;;;7.41;100.00;95904.81;5036271;28;19959;-64
2023/03/25 00:16:47;;;;;;;;;;;;;;;7.41;100.00;95901.38;5036197;28;20326;-64
2023/03/25 00:19:14;;;;;;;;;;;;;;;7.35;100.00;95894.41;5036404;28;19932;-65
2023/03/25 00:21:43;;;;;;;;;;;;;;;7.33;100.00;95899.84;5036879;28;19949;-64
2023/03/25 00:24:11;;;;;;;;;;;;;;;7.31;100.00;95904.47;5036098;28;19960;-66
2023/03/25 00:26:41;;;;;;;;;;;;;;;7.27;100.00;95898.06;5036749;28;19955;-64
2023/03/25 00:29:10;;;;;;;;;;;;;;;7.19;100.00;95900.94;5036739;28;20308;-64
2023/03/25 00:31:36;;;;;;;;;;;;;;;7.13;100.00;95896.56;5036438;28;19945;-65
2023/03/25 00:34:02;;;;;;;;;;;;;;;7.10;100.00;95911.59;5036125;28;20304;-65
2023/03/25 00:36:28;;;;;;;;;;;;;;;7.08;100.00;95907.63;5036271;28;20314;-64
2023/03/25 00:38:54;;;;;;;;;;;;;;;7.05;100.00;95903.59;5036082;28;19941;-65
2023/03/25 00:41:24;;;;;;;;;;;;;;;7.02;100.00;95895.41;5036010;28;19943;-70
2023/03/25 00:43:51;;;;;;;;;;;;;;;7.00;100.00;95893.00;5035808;28;19963;-70
2023/03/25 00:46:17;;;;;;;;;;;;;;;7.00;100.00;95881.78;5035685;28;19968;-70
2023/03/25 00:48:43;;;;;;;;;;;;;;;6.98;100.00;95870.78;5035882;28;20401;-70
2023/03/25 00:51:13;;;;;;;;;;;;;;;6.96;100.00;95867.56;5035491;28;20284;-70
2023/03/25 00:53:39;;;;;;;;;;;;;;;6.96;100.00;95865.75;5035521;28;19947;-69
2023/03/25 00:56:05;;;;;;;;;;;;;;;6.94;100.00;95865.16;5035997;28;19955;-70
2023/03/25 00:58:31;;;;;;;;;;;;;;;6.93;100.00;95865.38;5035445;28;19947;-70
2023/03/25 01:00:58;;;;;;;;;;;;;;;6.90;100.00;95862.16;5035342;28;19949;-75
2023/03/25 01:03:30;;;;;;;;;;;;;;;6.88;100.00;95855.56;5034985;28;20474;-71
2023/03/25 01:05:56;;;;;;;;;;;;;;;6.88;100.00;95873.81;5035255;28;19943;-72
2023/03/25 01:08:28;;;;;;;;;;;;;;;6.88;100.00;95877.22;5035196;28;19947;-72
2023/03/25 01:10:54;;;;;;;;;;;;;;;6.89;100.00;95878.03;5035778;28;19951;-72
2023/03/25 01:13:21;;;;;;;;;;;;;;;6.87;100.00;95880.84;5035154;28;19945;-72
2023/03/25 01:15:47;;;;;;;;;;;;;;;6.87;100.00;95893.06;5035610;28;19948;-72
2023/03/25 01:18:14;;;;;;;;;;;;;;;6.84;100.00;95898.69;5035345;28;19939;-70
2023/03/25 01:20:40;;;;;;;;;;;;;;;6.85;100.00;95889.88;5035045;28;19956;-76
2023/03/25 01:23:08;;;;;;;;;;;;;;;6.85;100.00;95889.88;5035395;28;20059;-76
2023/03/25 01:25:34;;;;;;;;;;;;;;;6.81;100.00;95886.88;5036042;28;19941;-76
2023/03/25 01:28:00;;;;;;;;;;;;;;;6.81;100.00;95878.28;5034908;28;19947;-76
2023/03/25 01:30:26;;;;;;;;;;;;;;;6.81;100.00;95867.84;5034754;28;19948;-76
2023/03/25 01:32:52;;;;;;;;;;;;;;;6.81;100.00;95865.25;5035631;28;19948;-76
2023/03/25 01:35:18;;;;;;;;;;;;;;;6.81;100.00;95863.44;5035319;28;19947;-76
2023/03/25 01:37:45;;;;;;;;;;;;;;;6.80;100.00;95866.22;5034644;28;19955;-66
2023/03/25 01:40:22;;;;;;;;;;;;;;;6.80;100.00;95868.84;5034673;28;20394;-64
2023/03/25 01:42:48;;;;;;;;;;;;;;;6.78;100.00;95868.25;5034592;28;19958;-64
2023/03/25 01:45:19;;;;;;;;;;;;;;;6.74;100.00;95860.06;5034403;28;19957;-66
2023/03/25 01:47:47;;;;;;;;;;;;;;;6.69;100.00;95863.28;5034513;28;19942;-65
2023/03/25 01:50:13;;;;;;;;;;;;;;;6.65;100.00;95862.09;5034482;28;19949;-66
2023/03/25 01:52:42;;;;;;;;;;;;;;;6.61;100.00;95865.31;5034434;28;19949;-65
2023/03/25 01:55:08;;;;;;;;;;;;;;;6.57;100.00;95846.69;5034497;28;20412;-70
2023/03/25 01:57:36;;;;;;;;;;;;;;;6.55;100.00;95842.69;5034359;28;19950;-70
2023/03/25 02:00:07;;;;;;;;;;;;;;;6.54;100.00;95844.50;5034315;28;19950;-69
2023/03/25 02:02:38;;;;;;;;;;;;;;;6.59;100.00;95838.66;5033972;28;19985;-70
2023/03/25 02:05:10;;;;;;;;;;;;;;;6.62;100.00;95831.25;5034487;28;20334;-69
2023/03/25 02:07:38;;;;;;;;;;;;;;;6.61;100.00;95831.44;5034772;28;20398;-70
2023/03/25 02:10:06;;;;;;;;;;;;;;;6.56;100.00;95842.50;5034310;28;20299;-70
2023/03/25 02:12:32;;;;;;;;;;;;;;;6.58;100.00;95842.28;5033174;28;19949;-72
2023/03/25 02:15:01;;;;;;;;;;;;;;;6.56;100.00;95846.91;5034172;28;19938;-72
2023/03/25 02:17:28;;;;;;;;;;;;;;;6.56;100.00;95854.72;5034011;28;19940;-76
2023/03/25 02:20:19;;;;;;;;;;;;;;;6.54;100.00;95861.94;5033974;28;19959;-77
2023/03/25 02:23:03;;;;;;;;;;;;;;;6.55;100.00;95866.13;5032891;28;20414;-77
2023/03/25 02:25:48;;;;;;;;;;;;;;;6.58;100.00;95869.13;5033866;28;20326;-78
2023/03/25 02:28:14;;;;;;;;;;;;;;;6.57;100.00;95874.56;5033862;28;19942;-79
2023/03/25 02:30:49;;;;;;;;;;;;;;;6.56;100.00;95899.00;5033566;28;19937;-74
2023/03/25 02:33:21;;;;;;;;;;;;;;;6.53;100.00;95926.28;5032439;28;19945;-73
2023/03/25 02:36:05;;;;;;;;;;;;;;;6.48;100.00;95939.09;5033678;28;20392;-69
2023/03/25 02:38:37;;;;;;;;;;;;;;;6.39;100.00;95911.69;5032813;28;19944;-68
2023/03/25 02:41:05;;;;;;;;;;;;;;;6.27;100.00;95908.91;5033788;28;19944;-69
2023/03/25 02:43:42;;;;;;;;;;;;;;;6.12;100.00;95931.75;5033558;28;19943;-69
2023/03/25 02:46:10;;;;;;;;;;;;;;;5.92;100.00;95929.13;5033718;28;20413;-68
2023/03/25 02:48:39;;;;;;;;;;;;;;;5.67;100.00;95891.53;5033910;28;19954;-69
2023/03/25 02:51:09;;;;;;;;;;;;;;;5.52;100.00;95851.09;5033568;28;19941;-72
2023/03/25 02:53:36;;;;;;;;;;;;;;;5.38;100.00;95856.31;5033769;28;19944;-69
2023/03/25 02:56:08;;;;;;;;;;;;;;;5.31;100.00;95850.28;5033669;28;19946;-69
2023/03/25 02:58:34;;;;;;;;;;;;;;;5.28;100.00;95837.69;5033795;28;19955;-69
2023/03/25 03:01:00;;;;;;;;;;;;;;;5.27;100.00;95841.28;5033599;28;19948;-69
2023/03/25 03:03:26;;;;;;;;;;;;;;;5.27;100.00;95854.28;5033295;28;19973;-70
2023/03/25 03:05:55;;;;;;;;;;;;;;;5.26;100.00;95857.88;5033486;28;20322;-69
2023/03/25 03:08:24;;;;;;;;;;;;;;;5.25;100.00;95846.69;5033466;28;19964;-64
2023/03/25 03:11:12;;;;;;;;;;;;;;;5.26;100.00;95853.47;5033444;28;19938;-71
2023/03/25 03:13:50;;;;;;;;;;;;;;;5.27;100.00;95849.06;5030374;28;20412;-69
2023/03/25 03:16:31;;;;;;;;;;;;;;;5.29;100.00;95858.31;5038225;28;19947;-70
2023/03/25 03:19:10;;;;;;;;;;;;;;;5.31;100.00;95863.28;5037314;28;19950;-70
2023/03/25 03:21:39;;;;;;;;;;;;;;;5.30;100.00;95866.91;5037241;28;20293;-69
2023/03/25 03:24:18;;;;;;;;;;;;;;;5.30;100.00;95856.50;5037967;28;19954;-69
2023/03/25 03:26:53;;;;;;;;;;;;;;;5.34;100.00;95852.50;5037198;28;20306;-76
2023/03/25 03:29:25;;;;;;;;;;;;;;;5.37;100.00;95848.69;5037685;28;19943;-70
2023/03/25 03:31:54;;;;;;;;;;;;;;;5.38;100.00;95856.31;5037973;28;19940;-69
2023/03/25 03:34:26;;;;;;;;;;;;;;;5.40;100.00;95858.72;5036974;28;19940;-70
2023/03/25 03:36:54;;;;;;;;;;;;;;;5.40;100.00;95851.72;5037257;28;19970;-69
2023/03/25 03:39:46;;;;;;;;;;;;;;;5.46;100.00;95863.91;5037006;28;19943;-70
2023/03/25 03:42:17;;;;;;;;;;;;;;;5.48;100.00;95858.50;5034893;28;19951;-70
2023/03/25 03:44:48;;;;;;;;;;;;;;;5.49;100.00;95860.91;5037862;28;19964;-67
2023/03/25 03:47:17;;;;;;;;;;;;;;;5.51;100.00;95871.09;5037088;28;20319;-71
2023/03/25 03:49:47;;;;;;;;;;;;;;;5.51;100.00;95872.91;5036753;28;19951;-70
2023/03/25 03:52:49;;;;;;;;;;;;;;;5.53;100.00;95868.31;5036668;28;19951;-70
2023/03/25 03:55:20;;;;;;;;;;;;;;;5.49;100.00;95871.31;4995200;28;20410;-71
2023/03/25 03:58:15;;;;;;;;;;;;;;;5.48;100.00;95868.91;5029671;28;19957;-69
2023/03/25 04:00:43;;;;;;;;;;;;;;;5.47;100.00;95880.31;5028016;28;19954;-70
2023/03/25 04:03:14;;;;;;;;;;;;;;;5.45;100.00;95875.31;5036325;28;19981;-66
2023/03/25 04:05:47;;;;;;;;;;;;;;;5.45;100.00;95870.09;5037092;28;19958;-65
2023/03/25 04:08:20;;;;;;;;;;;;;;;5.48;100.00;95877.50;5036965;28;19945;-72
2023/03/25 04:10:57;;;;;;;;;;;;;;;5.51;100.00;95881.50;5037240;28;19941;-73
2023/03/25 04:13:25;;;;;;;;;;;;;;;5.52;100.00;95877.09;5036325;28;20305;-71
2023/03/25 04:15:51;;;;;;;;;;;;;;;5.56;100.00;95888.72;5036256;28;19948;-72
2023/03/25 04:18:22;;;;;;;;;;;;;;;5.57;100.00;95882.53;5036727;28;20386;-74
2023/03/25 04:20:48;;;;;;;;;;;;;;;5.58;100.00;95876.31;5036992;28;19947;-73
2023/03/25 04:23:15;;;;;;;;;;;;;;;5.59;100.00;95878.72;5036233;28;19976;-67
2023/03/25 04:25:41;;;;;;;;;;;;;;;5.58;100.00;95879.69;5035251;28;19968;-73
2023/03/25 04:28:12;;;;;;;;;;;;;;;5.55;100.00;95869.72;5036022;28;19949;-72
2023/03/25 04:30:39;;;;;;;;;;;;;;;5.55;100.00;95874.91;5035547;28;19947;-73
2023/03/25 04:33:05;;;;;;;;;;;;;;;5.55;100.00;95882.72;5036563;28;19946;-72
2023/03/25 04:35:31;;;;;;;;;;;;;;;5.55;100.00;95884.53;5036654;28;19947;-73
2023/03/25 04:37:58;;;;;;;;;;;;;;;5.54;100.00;95885.50;5036409;28;19947;-73
2023/03/25 04:40:24;;;;;;;;;;;;;;;5.52;100.00;95885.69;5034624;28;19950;-77
2023/03/25 04:42:52;;;;;;;;;;;;;;;5.52;100.00;95896.09;5036019;28;20014;-72
2023/03/25 04:45:18;;;;;;;;;;;;;;;5.55;100.00;95894.94;5035576;28;19955;-67
2023/03/25 04:47:45;;;;;;;;;;;;;;;5.55;100.00;95884.53;5036501;28;19954;-66
2023/03/25 04:50:22;;;;;;;;;;;;;;;5.57;100.00;95882.53;5035629;28;19939;-66
2023/03/25 04:52:48;;;;;;;;;;;;;;;5.56;100.00;95886.91;5036436;28;19943;-66
2023/03/25 04:55:18;;;;;;;;;;;;;;;5.54;100.00;95888.91;5035557;28;19941;-66
2023/03/25 04:57:44;;;;;;;;;;;;;;;5.54;100.00;95901.91;5035488;28;19948;-66
2023/03/25 05:00:12;;;;;;;;;;;;;;;5.46;100.00;95894.31;5036181;28;19941;-75
2023/03/25 05:02:44;;;;;;;;;;;;;;;5.41;100.00;95896.69;5035179;28;19974;-72
2023/03/25 05:05:17;;;;;;;;;;;;;;;5.41;100.00;95892.28;5035362;28;19968;-72
2023/03/25 05:07:45;;;;;;;;;;;;;;;5.44;100.00;95907.50;5035598;28;19955;-72
2023/03/25 05:10:11;;;;;;;;;;;;;;;5.48;100.00;95919.13;5035773;28;19953;-72
2023/03/25 05:12:37;;;;;;;;;;;;;;;5.51;100.00;95917.91;5035191;28;20398;-72
2023/03/25 05:15:03;;;;;;;;;;;;;;;5.52;100.00;95926.50;5035381;28;19957;-72
2023/03/25 05:17:29;;;;;;;;;;;;;;;5.52;100.00;95931.72;5035110;28;19955;-75
2023/03/25 05:19:55;;;;;;;;;;;;;;;5.56;100.00;95930.31;5034899;28;19947;-70
2023/03/25 05:22:22;;;;;;;;;;;;;;;5.55;100.00;95929.53;5034905;28;19953;-71
2023/03/25 05:24:49;;;;;;;;;;;;;;;5.52;100.00;95923.91;5034328;28;20424;-70
2023/03/25 05:27:18;;;;;;;;;;;;;;;5.49;100.00;95920.72;5035858;28;19939;-70
2023/03/25 05:29:47;;;;;;;;;;;;;;;5.50;100.00;95921.50;5034816;28;19943;-69
2023/03/25 05:32:16;;;;;;;;;;;;;;;5.49;100.00;95920.72;5035387;28;19954;-69
2023/03/25 05:34:48;;;;;;;;;;;;;;;5.46;100.00;95926.31;5035532;28;19940;-69
2023/03/25 05:37:13;;;;;;;;;;;;;;;5.46;100.00;95923.72;5034619;28;19959;-70
2023/03/25 05:39:39;;;;;;;;;;;;;;;5.44;100.00;95922.31;5035184;28;19940;-72
2023/03/25 05:42:05;;;;;;;;;;;;;;;5.45;100.00;95931.72;5034668;28;19986;-72
2023/03/25 05:44:31;;;;;;;;;;;;;;;5.47;100.00;95942.72;5034405;28;20411;-71
2023/03/25 05:47:00;;;;;;;;;;;;;;;5.48;100.00;95939.94;5034515;28;19941;-72
2023/03/25 05:49:26;;;;;;;;;;;;;;;5.51;100.00;95945.72;5034376;28;19943;-72
2023/03/25 05:51:53;;;;;;;;;;;;;;;5.54;100.00;95950.53;5034424;28;19940;-72
2023/03/25 05:54:18;;;;;;;;;;;;;;;5.56;100.00;95954.53;5035186;28;19936;-79
2023/03/25 05:56:44;;;;;;;;;;;;;;;5.58;100.00;95956.94;5034766;28;19942;-74
2023/03/25 05:59:10;;;;;;;;;;;;;;;5.61;100.00;95967.75;5034596;28;19941;-76
2023/03/25 06:01:36;;;;;;;;;;;;;;;5.66;100.00;95969.75;5034456;28;19949;-75
2023/03/25 06:04:02;;;;;;;;;;;;;;;5.69;100.00;95972.78;5034279;28;19981;-76
2023/03/25 06:06:29;;;;;;;;;;;;;;;5.69;100.00;95970.16;5034181;28;20343;-76
2023/03/25 06:08:55;;;;;;;;;;;;;;;5.68;100.00;95975.56;5034223;28;19950;-76
2023/03/25 06:11:21;;;;;;;;;;;;;;;5.67;100.00;95981.78;5034356;28;19941;-77
2023/03/25 06:13:50;;;;;;;;;;;;;;;5.65;100.00;95970.78;5034126;28;19943;-77
2023/03/25 06:16:17;;;;;;;;;;;;;;;5.62;100.00;95976.34;5033966;28;19947;-78
2023/03/25 06:18:44;;;;;;;;;;;;;;;5.63;100.00;95967.56;5033993;28;19945;-78
2023/03/25 06:21:10;;;;;;;;;;;;;;;5.64;100.00;95967.34;5033849;28;19956;-78
2023/03/25 06:23:38;;;;;;;;;;;;;;;5.64;100.00;95961.34;5033806;28;19942;-78
2023/03/25 06:26:04;;;;;;;;;;;;;;;5.64;100.00;95975.16;5034626;28;19965;-78
2023/03/25 06:28:30;;;;;;;;;;;;;;;5.64;100.00;95971.75;5032878;28;19943;-76
2023/03/25 06:30:55;;;;;;;;;;;;;;;5.62;100.00;95966.75;5033672;28;20288;-65
2023/03/25 06:33:21;;;;;;;;;;;;;;;5.61;100.00;95961.75;5034026;28;20034;-76
2023/03/25 06:35:53;;;;;;;;;;;;;;;5.67;100.00;95961.75;5033992;28;19944;-65
2023/03/25 06:38:22;;;;;;;;;;;;;;;5.77;100.00;95948.34;5034361;28;19949;-66
2023/03/25 06:40:48;;;;;;;;;;;;;;;5.87;100.00;95951.34;5033266;28;19945;-66
2023/03/25 06:43:15;;;;;;;;;;;;;;;5.89;100.00;95951.16;5033506;28;19948;-66
2023/03/25 06:45:41;;;;;;;;;;;;;;;5.92;100.00;95947.34;5033171;28;19968;-65
2023/03/25 06:48:07;;;;;;;;;;;;;;;6.22;100.00;95952.97;5033062;28;19968;-67
2023/03/25 06:50:33;;;;;;;;;;;;;;;6.57;100.00;95953.50;5033597;28;20404;-67
2023/03/25 06:52:59;;;;;;;;;;;;;;;6.75;100.00;95947.66;5033518;28;20401;-69
2023/03/25 06:55:25;;;;;;;;;;;;;;;6.74;100.00;95947.84;5034255;28;20035;-69
2023/03/25 06:57:55;;;;;;;;;;;;;;;6.70;100.00;95940.44;5033401;28;19963;-70
2023/03/25 07:00:22;;;;;;;;;;;;;;;6.66;100.00;95941.06;5033276;28;19946;-71
2023/03/25 07:02:49;;;;;;;;;;;;;;;6.64;100.00;95959.50;5033392;28;19976;-70
2023/03/25 07:05:14;;;;;;;;;;;;;;;6.65;100.00;95955.09;5033879;28;19976;-70
2023/03/25 07:07:40;;;;;;;;;;;;;;;6.68;100.00;95945.06;5033327;28;19947;-69
2023/03/25 07:10:06;;;;;;;;;;;;;;;6.80;100.00;95957.44;5033551;28;19942;-75
2023/03/25 07:12:33;;;;;;;;;;;;;;;6.89;100.00;95944.00;5033238;28;19948;-73
2023/03/25 07:14:59;;;;;;;;;;;;;;;7.01;100.00;95941.50;5033136;28;20356;-73
2023/03/25 07:17:25;;;;;;;;;;;;;;;7.06;99.57;95946.91;5033103;28;19947;-74
2023/03/25 07:19:51;;;;;;;;;;;;;;;7.18;99.28;95952.28;5033194;28;19945;-71
2023/03/25 07:22:17;;;;;;;;;;;;;;;7.16;99.13;95949.09;5033153;28;19951;-73
2023/03/25 07:24:42;;;;;;;;;;;;;;;7.17;99.50;95955.09;5033051;28;19963;-72
2023/03/25 07:27:09;;;;;;;;;;;;;;;7.11;100.00;95956.72;5033215;28;20368;-72
2023/03/25 07:29:35;;;;;;;;;;;;;;;7.08;100.00;95957.94;5033097;28;19941;-73
2023/03/25 07:32:01;;;;;;;;;;;;;;;7.06;100.00;95964.38;5033246;28;19986;-73
2023/03/25 07:34:27;;;;;;;;;;;;;;;7.03;100.00;95967.38;5033962;28;20025;-73
2023/03/25 07:36:53;;;;;;;;;;;;;;;7.18;100.00;95962.72;5033328;28;20335;-73
2023/03/25 07:39:20;;;;;;;;;;;;;;;7.52;99.84;95952.91;5033539;28;19952;-74
2023/03/25 07:41:46;;;;;;;;;;;;;;;7.68;99.32;95951.59;5032867;28;19949;-73
2023/03/25 07:44:14;;;;;;;;;;;;;;;7.72;97.50;95956.16;5032961;28;19954;-66
2023/03/25 07:46:40;;;;;;;;;;;;;;;7.68;95.69;95941.16;5033147;28;19966;-66
2023/03/25 07:49:06;;;;;;;;;;;;;;;7.68;97.34;95951.59;5032796;28;20009;-73
2023/03/25 07:51:33;;;;;;;;;;;;;;;7.67;97.87;95955.22;5032791;28;19947;-74
2023/03/25 07:53:59;;;;;;;;;;;;;;;7.60;98.73;95962.28;5033285;28;19951;-73
2023/03/25 07:56:25;;;;;;;;;;;;;;;7.59;99.75;95963.28;5033318;28;19951;-73
2023/03/25 07:58:51;;;;;;;;;;;;;;;7.52;100.00;95968.56;5033159;28;19938;-73
2023/03/25 08:01:17;;;;;;;;;;;;;;;7.49;100.00;95976.78;5035972;28;19985;-73
2023/03/25 08:03:43;;;;;;;;;;;;;;;7.40;100.00;95976.25;5036294;28;19975;-76
2023/03/25 08:06:09;;;;;;;;;;;;;;;7.25;100.00;95973.13;5035662;28;20448;-66
2023/03/25 08:08:35;;;;;;;;;;;;;;;7.10;100.00;95978.59;5036295;28;19945;-64
2023/03/25 08:11:00;;;;;;;;;;;;;;;7.05;100.00;95960.94;5036563;28;20303;-64
2023/03/25 08:13:27;;;;;;;;;;;;;;;7.01;100.00;95972.78;5036381;28;19939;-66
2023/03/25 08:15:52;;;;;;;;;;;;;;;6.97;100.00;95974.25;5036342;28;19951;-64
2023/03/25 08:18:19;;;;;;;;;;;;;;;6.96;100.00;95967.41;5035849;28;19940;-64
2023/03/25 08:20:45;;;;;;;;;;;;;;;6.92;100.00;95971.44;5036398;28;19970;-68
2023/03/25 08:23:11;;;;;;;;;;;;;;;6.89;100.00;95964.84;5036070;28;19951;-71
2023/03/25 08:25:37;;;;;;;;;;;;;;;6.91;100.00;95969.84;5037049;28;19967;-73
2023/03/25 08:28:03;;;;;;;;;;;;;;;6.90;100.00;95978.66;5035879;28;20340;-74
2023/03/25 08:30:29;;;;;;;;;;;;;;;6.85;100.00;95979.28;5035802;28;19941;-74
2023/03/25 08:32:55;;;;;;;;;;;;;;;6.82;100.00;95979.69;5036249;28;20503;-73
2023/03/25 08:35:22;;;;;;;;;;;;;;;6.81;100.00;95967.66;5036213;28;19939;-74
2023/03/25 08:37:48;;;;;;;;;;;;;;;6.95;100.00;95963.22;5035568;28;20448;-73
2023/03/25 08:40:17;;;;;;;;;;;;;;;7.08;100.00;95967.59;5035584;28;19935;-69
2023/03/25 08:42:43;;;;;;;;;;;;;;;7.06;100.00;95961.78;5036411;28;20297;-70
2023/03/25 08:45:09;;;;;;;;;;;;;;;6.94;100.00;95969.44;5035952;28;20051;-70
2023/03/25 08:47:35;;;;;;;;;;;;;;;6.94;100.00;95958.22;5036302;28;19938;-70
2023/03/25 08:50:01;;;;;;;;;;;;;;;7.04;100.00;95964.56;5035391;28;19938;-69
2023/03/25 08:52:27;;;;;;;;;;;;;;;7.13;100.00;95959.91;5035382;28;19948;-71
2023/03/25 08:54:53;;;;;;;;;;;;;;;7.23;100.00;95957.66;5035909;28;19957;-71
2023/03/25 08:57:19;;;;;;;;;;;;;;;7.26;100.00;95951.22;5035286;28;19950;-70
2023/03/25 08:59:45;;;;;;;;;;;;;;;7.35;100.00;95946.56;5036218;28;19951;-66
2023/03/25 09:02:11;;;;;;;;;;;;;;;7.40;100.00;95944.94;5035331;28;19978;-65
2023/03/25 09:04:38;;;;;;;;;;;;;;;7.46;100.00;95945.91;5034964;28;19949;-65
2023/03/25 09:07:09;;;;;;;;;;;;;;;7.59;100.00;95945.03;5035447;28;19976;-65
2023/03/25 09:09:41;;;;;;;;;;;;;;;7.72;100.00;95952.75;5034989;28;20394;-66
2023/03/25 09:12:07;;;;;;;;;;;;;;;7.74;100.00;95953.34;5034889;28;19951;-66
2023/03/25 09:14:33;;;;;;;;;;;;;;;7.78;100.00;95953.72;5035336;28;20389;-66
2023/03/25 09:16:59;;;;;;;;;;;;;;;7.71;100.00;95948.56;5034976;28;19952;-66
2023/03/25 09:19:25;;;;;;;;;;;;;;;7.65;100.00;95950.19;5034894;28;19943;-71
2023/03/25 09:21:51;;;;;;;;;;;;;;;7.67;100.00;95944.78;5035751;28;19936;-72
2023/03/25 09:24:17;;;;;;;;;;;;;;;7.75;100.00;95946.31;5034664;28;19975;-72
2023/03/25 09:26:42;;;;;;;;;;;;;;;7.80;100.00;95954.31;5034502;28;20013;-71
2023/03/25 09:29:08;;;;;;;;;;;;;;;7.81;100.00;95953.28;5034832;28;19947;-72
2023/03/25 09:31:34;;;;;;;;;;;;;;;7.81;100.00;95951.50;5034817;28;19944;-72
2023/03/25 09:34:00;;;;;;;;;;;;;;;7.80;100.00;95957.72;5035516;28;19949;-72
2023/03/25 09:36:26;;;;;;;;;;;;;;;7.85;100.00;95957.09;5034561;28;19962;-74
2023/03/25 09:38:52;;;;;;;;;;;;;;;7.91;100.00;95951.00;5035415;28;19945;-64
2023/03/25 09:41:30;;;;;;;;;;;;;;;7.97;100.00;95939.72;5034283;28;19948;-64
2023/03/25 09:44:01;;;;;;;;;;;;;;;8.07;100.00;95945.25;5034273;28;19946;-64
2023/03/25 09:46:27;;;;;;;;;;;;;;;8.17;100.00;95930.91;5034001;28;19968;-64
2023/03/25 09:48:54;;;;;;;;;;;;;;;8.16;100.00;95943.16;5034370;28;19946;-64
2023/03/25 09:51:31;;;;;;;;;;;;;;;8.07;100.00;95940.03;5034304;28;19939;-64
2023/03/25 09:53:56;;;;;;;;;;;;;;;8.10;100.00;95951.88;5034451;28;19940;-72
2023/03/25 09:56:25;;;;;;;;;;;;;;;8.33;100.00;95952.06;5033985;28;19947;-75
2023/03/25 09:58:53;;;;;;;;;;;;;;;8.59;100.00;95950.25;5034224;28;19954;-77
2023/03/25 10:01:25;;;;;;;;;;;;;;;8.82;100.00;95956.63;5032911;28;20315;-78
2023/03/25 10:04:00;;;;;;;;;;;;;;;9.18;100.00;95934.88;5033725;28;19999;-78
2023/03/25 10:06:26;;;;;;;;;;;;;;;9.38;100.00;95952.13;5033763;28;19971;-77
2023/03/25 10:08:58;;;;;;;;;;;;;;;9.29;96.61;95928.09;5033790;28;19958;-78
2023/03/25 10:11:32;;;;;;;;;;;;;;;9.10;97.27;95938.59;5034084;28;20309;-71
2023/03/25 10:14:10;;;;;;;;;;;;;;;9.25;100.00;95974.81;5035195;28;19946;-73
2023/03/25 10:16:45;;;;;;;;;;;;;;;9.58;100.00;95931.72;5034526;28;19942;-71
2023/03/25 10:19:23;;;;;;;;;;;;;;;9.94;100.00;95941.22;5033931;28;20293;-73
2023/03/25 10:21:59;;;;;;;;;;;;;;;10.23;98.30;95936.13;5033674;28;19944;-71
2023/03/25 10:24:29;;;;;;;;;;;;;;;10.36;95.14;95908.91;5034535;28;20280;-70
2023/03/25 10:27:07;;;;;;;;;;;;;;;10.51;95.11;95913.69;5033805;28;19972;-72
2023/03/25 10:29:38;;;;;;;;;;;;;;;10.74;94.13;95908.38;5034380;28;19943;-72
2023/03/25 10:32:13;;;;;;;;;;;;;;;10.94;90.89;95896.69;5033907;28;19954;-65
2023/03/25 10:34:45;;;;;;;;;;;;;;;10.96;88.01;95873.66;5033786;28;20309;-75
2023/03/25 10:37:14;;;;;;;;;;;;;;;10.82;85.73;95867.91;5034046;28;20439;-76
2023/03/25 10:39:44;;;;;;;;;;;;;;;10.53;85.52;95877.53;5034240;28;19941;-75
2023/03/25 10:42:13;;;;;;;;;;;;;;;10.39;87.38;95894.53;5033097;28;20288;-75
2023/03/25 10:44:39;;;;;;;;;;;;;;;10.23;87.07;95885.53;5033643;28;19942;-75
2023/03/25 10:47:07;;;;;;;;;;;;;;;10.12;85.15;95881.88;5033575;28;19963;-74
2023/03/25 10:49:34;;;;;;;;;;;;;;;10.15;81.72;95852.63;5034408;28;19953;-66
2023/03/25 10:52:01;;;;;;;;;;;;;;;10.10;79.58;95849.88;5033624;28;20014;-73
2023/03/25 10:54:32;;;;;;;;;;;;;;;10.05;81.52;95862.88;5034309;28;20406;-73
2023/03/25 10:57:00;;;;;;;;;;;;;;;10.11;83.41;95875.84;5033558;28;20003;-72
2023/03/25 10:59:29;;;;;;;;;;;;;;;10.18;83.33;95877.56;5034024;28;19951;-73
2023/03/25 11:01:56;;;;;;;;;;;;;;;10.11;82.19;95878.47;5034003;28;20393;-73
2023/03/25 11:04:26;;;;;;;;;;;;;;;10.06;85.24;95899.31;5033594;28;19946;-72
2023/03/25 11:06:56;;;;;;;;;;;;;;;9.98;82.70;95859.59;5033420;28;19969;-70
2023/03/25 11:09:29;;;;;;;;;;;;;;;9.84;81.02;95864.22;5033611;28;19945;-77
2023/03/25 11:11:58;;;;;;;;;;;;;;;9.90;95.32;95958.41;5033441;28;19963;-71
2023/03/25 11:14:25;;;;;;;;;;;;;;;9.99;84.79;95908.31;5033452;28;20058;-71
2023/03/25 11:16:56;;;;;;;;;;;;;;;9.95;88.12;95937.59;5033470;28;19943;-70
2023/03/25 11:19:26;;;;;;;;;;;;;;;10.01;88.63;95941.09;5034342;28;19950;-71
2023/03/25 11:21:54;;;;;;;;;;;;;;;10.24;88.05;95940.31;5033278;28;19944;-71
2023/03/25 11:24:22;;;;;;;;;;;;;;;10.48;84.31;95901.03;5033371;28;19949;-70
2023/03/25 11:26:48;;;;;;;;;;;;;;;10.56;82.93;95892.78;5033277;28;20341;-71
2023/03/25 11:29:15;;;;;;;;;;;;;;;10.65;85.01;95907.16;5033251;28;19952;-69
2023/03/25 11:31:42;;;;;;;;;;;;;;;10.84;84.50;95894.69;5033256;28;19945;-70
2023/03/25 11:34:11;;;;;;;;;;;;;;;11.12;83.82;95888.66;5035269;28;19964;-70
2023/03/25 11:36:53;;;;;;;;;;;;;;;11.36;80.00;95852.59;5037124;28;19954;-70
2023/03/25 11:39:22;;;;;;;;;;;;;;;11.15;77.18;95822.59;5036821;28;19947;-69
2023/03/25 11:41:48;;;;;;;;;;;;;;;11.17;77.12;95827.56;5037379;28;20387;-68
2023/03/25 11:44:27;;;;;;;;;;;;;;;11.33;75.93;95818.13;5036795;28;19968;-70
2023/03/25 11:46:56;;;;;;;;;;;;;;;11.57;73.16;95785.44;5036645;28;20467;-70
2023/03/25 11:49:23;;;;;;;;;;;;;;;11.78;74.75;95794.41;5037474;28;20312;-70
2023/03/25 11:51:50;;;;;;;;;;;;;;;11.76;70.38;95764.19;5036242;28;20384;-70
2023/03/25 11:54:16;;;;;;;;;;;;;;;11.62;73.34;95776.84;5037402;28;20302;-72
2023/03/25 11:56:43;;;;;;;;;;;;;;;11.58;80.15;95868.44;5037293;28;20015;-71
2023/03/25 11:59:23;;;;;;;;;;;;;;;11.82;75.58;95820.97;5036496;28;19949;-72
2023/03/25 12:01:50;;;;;;;;;;;;;;;12.07;73.97;95801.38;5036386;28;19943;-70
2023/03/25 12:04:17;;;;;;;;;;;;;;;12.14;71.96;95767.84;5036566;28;19947;-76
2023/03/25 12:07:03;;;;;;;;;;;;;;;12.22;70.51;95732.44;5036262;28;19966;-65
2023/03/25 12:09:30;;;;;;;;;;;;;;;12.31;66.33;95704.69;5029176;28;19949;-66
2023/03/25 12:12:15;;;;;;;;;;;;;;;12.32;67.22;95717.56;5036316;28;20292;-66
2023/03/25 12:14:59;;;;;;;;;;;;;;;12.21;70.05;95767.66;5036232;28;19951;-65
2023/03/25 12:17:28;;;;;;;;;;;;;;;12.38;65.90;95731.59;5036179;28;19946;-66
2023/03/25 12:19:54;;;;;;;;;;;;;;;12.22;62.37;95724.56;5036211;28;19952;-76
2023/03/25 12:22:23;;;;;;;;;;;;;;;11.78;63.17;95757.66;5037023;28;19944;-66
2023/03/25 12:25:00;;;;;;;;;;;;;;;11.40;66.73;95795.13;5036642;28;19943;-75
2023/03/25 12:27:59;;;;;;;;;;;;;;;11.34;68.25;95811.88;5035969;28;19979;-75
2023/03/25 12:30:41;;;;;;;;;;;;;;;11.38;70.01;95819.03;5013205;28;19958;-76
2023/03/25 12:33:27;;;;;;;;;;;;;;;11.43;72.65;95856.91;5035729;28;19954;-76
2023/03/25 12:36:11;;;;;;;;;;;;;;;11.61;71.76;95846.16;5035639;28;19961;-76
2023/03/25 12:38:59;;;;;;;;;;;;;;;11.88;73.29;95848.13;5035678;28;19947;-71
2023/03/25 12:41:45;;;;;;;;;;;;;;;11.75;71.70;95841.38;5036166;28;19947;-73
2023/03/25 12:44:11;;;;;;;;;;;;;;;11.43;74.51;95873.44;5035447;28;19950;-69
2023/03/25 12:46:43;;;;;;;;;;;;;;;11.23;77.77;95883.59;5034957;28;19972;-71
2023/03/25 12:49:28;;;;;;;;;;;;;;;11.11;78.71;95886.28;5035554;28;20292;-69
2023/03/25 12:52:06;;;;;;;;;;;;;;;11.23;77.66;95887.00;5035100;28;19941;-70
2023/03/25 12:54:53;;;;;;;;;;;;;;;11.36;76.00;95870.97;5035410;28;19949;-69
2023/03/25 12:57:26;;;;;;;;;;;;;;;11.50;75.06;95873.28;5035404;28;20393;-77
2023/03/25 12:59:59;;;;;;;;;;;;;;;11.73;72.05;95840.81;5035843;28;19943;-66